Time;durP1;ratioP1;P1;durP2;ratioP2;P2;SDS_P1;SDS_P2;PMS_P1;PMS_P2;Temp;Humidity;BMP_temperature;BMP_pressure;BME280_temperature;BME280_humidity;BME280_pressure;Samples;Min_cycle;Max_cycle;Signal;HPM_P1;HPM_P2
2021/01/24 00:04:50;;;;;;;0.80;0.80;;;;;;;0.81;86.45;94587.41;299395;204;63005;-64
2021/01/24 00:09:51;;;;;;;0.80;0.80;;;;;;;0.86;86.16;94592.69;299395;251;63017;-65
2021/01/24 00:14:52;;;;;;;0.80;0.80;;;;;;;0.74;86.80;94597.63;299395;220;63005;-64
2021/01/24 00:19:54;;;;;;;0.80;0.80;;;;;;;0.70;86.96;94600.06;299395;242;63009;-57
2021/01/24 00:24:56;;;;;;;0.80;0.80;;;;;;;0.71;86.92;94606.22;299395;257;63004;-65
2021/01/24 00:29:58;;;;;;;0.80;0.80;;;;;;;0.73;87.10;94596.03;299395;257;63009;-64
2021/01/24 00:34:58;;;;;;;0.80;0.80;;;;;;;0.64;87.17;94606.59;299395;206;63005;-63
2021/01/24 00:39:59;;;;;;;0.80;0.80;;;;;;;0.71;87.00;94598.19;299395;198;63009;-62
2021/01/24 00:45:00;;;;;;;0.80;0.80;;;;;;;0.75;86.96;94608.03;299395;219;63005;-65
2021/01/24 00:50:03;;;;;;;0.70;0.70;;;;;;;0.71;86.51;94615.00;299395;226;63009;-63
2021/01/24 00:55:05;;;;;;;0.80;0.80;;;;;;;0.77;86.44;94608.53;299395;215;63004;-55
2021/01/24 01:00:07;;;;;;;0.80;0.80;;;;;;;0.75;86.34;94615.22;299395;238;63009;-64
2021/01/24 01:05:09;;;;;;;0.80;0.80;;;;;;;0.79;86.13;94619.72;299395;223;63005;-66
2021/01/24 01:10:11;;;;;;;0.80;0.80;;;;;;;0.81;85.43;94625.56;299395;245;63009;-55
2021/01/24 01:15:13;;;;;;;0.80;0.80;;;;;;;0.76;86.31;94632.84;299395;239;63005;-65
2021/01/24 01:20:14;;;;;;;0.80;0.80;;;;;;;0.80;85.51;94628.53;299395;222;63009;-63
2021/01/24 01:25:18;;;;;;;0.80;0.80;;;;;;;0.77;85.84;94629.09;299395;202;63000;-64
2021/01/24 01:30:20;;;;;;;0.80;0.80;;;;;;;0.81;85.98;94624.78;299479;196;125017;-63
2021/01/24 01:35:24;;;;;;;0.80;0.80;;;;;;;0.70;86.15;94620.63;299395;220;63000;-55
2021/01/24 01:40:25;;;;;;;0.77;0.77;;;;;;;0.64;85.96;94618.06;299417;234;63004;-56
2021/01/24 01:45:26;;;;;;;0.80;0.80;;;;;;;0.60;86.14;94625.03;299395;284;63000;-62
2021/01/24 01:50:27;;;;;;;0.70;0.70;;;;;;;0.69;85.64;94611.06;299395;213;63005;-63
2021/01/24 01:55:29;;;;;;;0.80;0.80;;;;;;;0.62;86.17;94622.88;299395;251;63014;-63
2021/01/24 02:00:30;;;;;;;0.80;0.80;;;;;;;0.69;85.89;94625.19;299395;227;63018;-64
2021/01/24 02:06:02;;;;;;;0.80;0.80;;;;;;;0.78;85.78;94630.69;299395;221;63000;-62
2021/01/24 02:11:16;;;;;;;0.80;0.80;;;;;;;0.93;84.54;94649.19;299395;261;63004;-69
2021/01/24 02:16:18;;;;;;;0.80;0.80;;;;;;;0.86;85.10;94664.75;299377;281;125000;-63
2021/01/24 02:21:29;;;;;;;0.80;0.80;;;;;;;1.12;82.34;94673.22;299395;199;63005;-63
2021/01/24 02:27:04;;;;;;;0.70;0.70;;;;;;;1.12;81.56;94690.06;299395;259;63001;-55
2021/01/24 02:32:06;;;;;;;0.80;0.80;;;;;;;1.12;80.69;94708.75;299395;225;63004;-62
2021/01/24 02:37:08;;;;;;;0.80;0.80;;;;;;;0.93;82.10;94719.41;299396;253;63000;-64
2021/01/24 02:42:10;;;;;;;0.80;0.80;;;;;;;1.17;79.59;94739.94;299396;204;63005;-59
2021/01/24 02:47:12;;;;;;;0.80;0.80;;;;;;;0.98;81.45;94737.25;299396;257;63000;-53
2021/01/24 02:52:14;;;;;;;0.70;0.70;;;;;;;1.00;80.92;94761.78;299396;208;63005;-63
2021/01/24 02:57:15;;;;;;;0.80;0.80;;;;;;;0.83;81.56;94778.25;299396;216;63001;-55
2021/01/24 03:02:16;;;;;;;0.80;0.80;;;;;;;0.79;81.87;94776.41;299396;210;63004;-61
2021/01/24 03:07:18;;;;;;;0.80;0.80;;;;;;;0.97;77.53;94778.38;299396;241;63000;-62
2021/01/24 03:12:19;;;;;;;0.88;0.88;;;;;;;0.79;76.44;94787.09;299396;224;63005;-58
2021/01/24 03:17:23;;;;;;;0.80;0.80;;;;;;;0.77;77.39;94813.28;299396;214;63011;-64
2021/01/24 03:22:24;;;;;;;0.80;0.80;;;;;;;0.65;82.88;94843.81;299441;229;63016;-66
2021/01/24 03:27:26;;;;;;;0.80;0.80;;;;;;;0.43;86.42;94859.47;299397;202;63000;-63
2021/01/24 03:32:27;;;;;;;1.23;1.23;;;;;;;0.25;87.99;94868.94;299396;202;63018;-69
2021/01/24 03:37:28;;;;;;;0.80;0.80;;;;;;;0.15;87.90;94876.22;299396;244;63000;-64
2021/01/24 03:42:29;;;;;;;0.80;0.80;;;;;;;0.25;85.78;94900.16;299396;199;63005;-64
2021/01/24 03:47:30;;;;;;;0.80;0.80;;;;;;;0.07;83.03;94895.44;299396;221;63000;-63
2021/01/24 03:52:34;;;;;;;0.80;0.80;;;;;;;0.06;82.73;94917.84;299396;202;63004;-68
2021/01/24 03:57:36;;;;;;;0.80;0.80;;;;;;;0.26;79.25;94896.41;299418;278;63000;-61
2021/01/24 04:02:36;;;;;;;0.80;0.80;;;;;;;0.19;78.97;94911.91;299396;282;63017;-59
2021/01/24 04:07:37;;;;;;;0.80;0.80;;;;;;;0.18;78.97;94921.00;299396;222;63000;-63
2021/01/24 04:12:38;;;;;;;0.80;0.80;;;;;;;0.25;77.02;94922.28;299396;287;63005;-64
2021/01/24 04:17:39;;;;;;;0.80;0.80;;;;;;;0.25;77.03;94932.16;299397;211;63000;-65
2021/01/24 04:22:40;;;;;;;1.27;1.17;;;;;;;0.31;76.05;94931.06;299395;259;63004;-61
2021/01/24 04:27:41;;;;;;;0.80;0.80;;;;;;;0.18;76.34;94939.66;299395;244;63000;-60
2021/01/24 04:32:46;;;;;;;0.80;0.80;;;;;;;0.00;76.55;94941.88;299395;196;63004;-61
2021/01/24 04:37:48;;;;;;;0.80;0.80;;;;;;;-0.27;77.48;94941.44;299417;224;63000;-62
2021/01/24 04:42:49;;;;;;;0.80;0.80;;;;;;;-0.29;77.86;94959.56;299395;351;63005;-64
2021/01/24 04:47:51;;;;;;;0.80;0.80;;;;;;;-0.26;76.68;94967.03;299395;244;63001;-62
2021/01/24 04:52:54;;;;;;;0.90;0.90;;;;;;;-0.20;72.80;94973.94;299395;203;63004;-61
2021/01/24 04:57:56;;;;;;;0.80;0.80;;;;;;;-0.20;71.88;94979.28;299395;196;63000;-61
2021/01/24 05:02:58;;;;;;;0.80;0.80;;;;;;;0.07;67.80;94975.44;299395;202;63005;-59
2021/01/24 05:07:59;;;;;;;1.00;1.00;;;;;;;-0.07;67.82;94986.72;299395;328;63000;-67
2021/01/24 05:13:01;;;;;;;0.80;0.80;;;;;;;-0.49;72.46;95002.28;299395;306;63005;-61
2021/01/24 05:18:03;;;;;;;0.80;0.80;;;;;;;-0.30;70.63;94989.97;299395;219;63001;-60
2021/01/24 05:23:08;;;;;;;0.90;0.90;;;;;;;-0.45;73.19;95008.66;299395;346;63004;-63
2021/01/24 05:28:26;;;;;;;;;;;;;;;-0.37;73.96;94992.13;299996;982;6000;-61
2021/01/24 05:33:27;;;;;;;0.90;0.90;;;;;;;-0.49;73.38;95010.25;299400;241;63000;-63
2021/01/24 05:38:30;;;;;;;0.80;0.80;;;;;;;-0.49;74.03;95020.94;299395;210;63004;-61
2021/01/24 05:43:42;;;;;;;0.80;0.80;;;;;;;-0.68;75.07;95024.13;299395;265;63009;-62
2021/01/24 05:48:49;;;;;;;0.80;0.80;;;;;;;-0.60;73.84;95022.00;299395;219;63005;-62
2021/01/24 05:53:50;;;;;;;0.80;0.80;;;;;;;-0.58;71.79;95019.84;299395;209;63000;-63
2021/01/24 05:58:59;;;;;;;0.80;0.80;;;;;;;-0.53;71.06;95027.84;299394;231;64004;-63
2021/01/24 06:04:04;;;;;;;0.80;0.80;;;;;;;-0.56;71.42;95050.50;299395;270;63000;-62
2021/01/24 06:09:05;;;;;;;0.80;0.80;;;;;;;-0.48;71.73;95067.81;299417;293;63004;-64
2021/01/24 06:14:08;;;;;;;0.80;0.80;;;;;;;-0.69;73.58;95078.47;299395;203;63000;-64
2021/01/24 06:19:10;;;;;;;0.80;0.80;;;;;;;-0.67;73.26;95078.19;299417;223;125005;-63
2021/01/24 06:24:30;;;;;;;0.82;0.82;;;;;;;-0.84;74.72;95089.12;299395;215;63000;-53
2021/01/24 06:29:31;;;;;;;0.90;0.90;;;;;;;-0.70;74.27;95092.87;299395;267;63004;-71
2021/01/24 06:34:38;;;;;;;0.80;0.80;;;;;;;-0.78;74.79;95096.06;299395;300;63000;-63
2021/01/24 06:39:48;;;;;;;0.80;0.80;;;;;;;-0.75;74.67;95098.19;299395;244;63005;-66
2021/01/24 06:44:48;;;;;;;0.80;0.80;;;;;;;-0.94;75.40;95112.25;299395;238;63000;-65
2021/01/24 06:49:49;;;;;;;0.80;0.80;;;;;;;-0.71;73.14;95103.78;299395;238;63005;-64
2021/01/24 06:54:51;;;;;;;0.85;0.85;;;;;;;-0.62;72.12;95101.38;299395;216;63001;-62
2021/01/24 07:00:15;;;;;;;0.80;0.80;;;;;;;-0.64;71.57;95116.81;299395;215;63004;-64
2021/01/24 07:05:24;;;;;;;0.80;0.80;;;;;;;-0.84;72.62;95117.59;299395;214;63005;-63
2021/01/24 07:10:45;;;;;;;0.90;0.90;;;;;;;-0.76;71.99;95135.72;299395;197;63009;-64
2021/01/24 07:15:59;;;;;;;2.10;2.03;;;;;;;-0.58;73.56;95145.06;299395;251;63004;-64
2021/01/24 07:21:01;;;;;;;1.12;1.12;;;;;;;-0.69;73.42;95144.25;299395;244;63009;-60
2021/01/24 07:26:04;;;;;;;0.90;0.90;;;;;;;-0.84;74.49;95144.22;299395;227;63005;-63
2021/01/24 07:31:06;;;;;;;0.80;0.80;;;;;;;-0.87;74.20;95145.56;299395;202;63008;-63
2021/01/24 07:36:07;;;;;;;0.80;0.80;;;;;;;-0.72;72.59;95137.59;299395;298;63004;-62
2021/01/24 07:41:09;;;;;;;0.80;0.80;;;;;;;-0.97;73.51;95156.19;299395;208;63009;-64
2021/01/24 07:46:11;;;;;;;0.90;0.90;;;;;;;-0.83;72.43;95145.84;299395;225;63004;-61
2021/01/24 07:51:12;;;;;;;0.80;0.80;;;;;;;-0.85;72.17;95154.09;299395;213;63009;-57
2021/01/24 07:56:14;;;;;;;0.80;0.80;;;;;;;-0.75;71.19;95156.78;299395;272;63020;-66
2021/01/24 08:01:15;;;;;;;0.80;0.80;;;;;;;-0.84;72.33;95166.34;299395;207;63009;-62
2021/01/24 08:06:17;;;;;;;0.80;0.80;;;;;;;-0.63;70.37;95159.16;299395;206;63004;-62
2021/01/24 08:11:18;;;;;;;0.80;0.80;;;;;;;-0.65;69.87;95163.97;299395;250;63019;-56
2021/01/24 08:16:42;;;;;;;0.80;0.80;;;;;;;-0.58;69.87;95158.38;299395;332;63005;-61
2021/01/24 08:21:47;;;;;;;0.80;0.80;;;;;;;-0.73;70.18;95165.31;299395;224;63004;-62
2021/01/24 08:26:48;;;;;;;;;;;;;;;-0.76;70.67;95168.50;299996;983;6004;-54
2021/01/24 08:31:49;;;;;;;1.00;1.00;;;;;;;-0.53;69.21;95182.38;299400;272;63021;-60
2021/01/24 08:36:50;;;;;;;1.00;1.00;;;;;;;-0.46;69.10;95186.38;299395;202;63009;-62
2021/01/24 08:41:52;;;;;;;0.90;0.90;;;;;;;-0.59;69.66;95194.06;299395;262;63009;-62
2021/01/24 08:47:03;;;;;;;0.90;0.90;;;;;;;-0.46;70.46;95198.91;299395;267;63005;-63
2021/01/24 08:52:04;;;;;;;0.80;0.80;;;;;;;-0.23;69.71;95198.38;299395;255;63018;-59
2021/01/24 08:57:17;;;;;;;0.80;0.80;;;;;;;-0.18;70.31;95221.56;299395;291;63005;-64
2021/01/24 09:02:33;;;;;;;0.90;0.90;;;;;;;-0.13;69.39;95221.59;299395;335;63009;-62
2021/01/24 09:07:41;;;;;;;0.82;0.82;;;;;;;-0.16;69.87;95230.91;299417;336;63004;-60
2021/01/24 09:12:48;;;;;;;1.80;1.70;;;;;;;-0.12;70.01;95237.31;299395;275;63009;-61
2021/01/24 09:17:53;;;;;;;2.80;1.23;;;;;;;-0.08;70.16;95243.72;299395;202;63005;-61
2021/01/24 09:22:54;;;;;;;0.80;0.80;;;;;;;-0.07;71.22;95261.31;299395;208;63011;-60
2021/01/24 09:27:57;;;;;;;0.80;0.80;;;;;;;-0.03;72.46;95259.72;299395;331;63004;-61
2021/01/24 09:33:01;;;;;;;0.85;0.85;;;;;;;-0.10;74.58;95261.03;299395;263;63009;-63
2021/01/24 09:38:02;;;;;;;0.90;0.90;;;;;;;-0.14;76.09;95260.78;299417;240;63005;-62
2021/01/24 09:43:03;;;;;;;0.80;0.80;;;;;;;-0.26;78.06;95278.88;299395;196;63009;-61
2021/01/24 09:48:07;;;;;;;0.80;0.80;;;;;;;-0.13;77.18;95267.69;299395;307;63005;-60
2021/01/24 09:53:08;;;;;;;0.80;0.80;;;;;;;-0.23;77.69;95273.00;299416;199;64014;-61
2021/01/24 09:58:09;;;;;;;1.00;1.00;;;;;;;-0.11;76.99;95262.91;299394;207;64004;-60
2021/01/24 10:03:10;;;;;;;0.80;0.80;;;;;;;-0.04;75.79;95276.78;299395;264;63009;-68
2021/01/24 10:08:11;;;;;;;0.80;0.80;;;;;;;0.15;74.47;95289.59;299395;229;63005;-59
2021/01/24 10:13:13;;;;;;;0.80;0.80;;;;;;;0.22;74.19;95292.78;299395;218;63018;-61
2021/01/24 10:18:15;;;;;;;0.80;0.80;;;;;;;0.24;74.23;95288.00;299395;307;63005;-60
2021/01/24 10:23:21;;;;;;;0.90;0.90;;;;;;;0.36;72.99;95301.84;299395;243;63009;-61
2021/01/24 10:28:26;;;;;;;0.98;0.98;;;;;;;0.39;70.53;95305.84;299395;274;63004;-60
2021/01/24 10:33:28;;;;;;;0.80;0.80;;;;;;;0.37;70.99;95307.97;299395;196;63009;-63
2021/01/24 10:38:29;;;;;;;2.58;2.47;;;;;;;0.43;69.28;95302.38;299395;270;63005;-60
2021/01/24 10:43:31;;;;;;;0.80;0.80;;;;;;;0.57;65.65;95292.78;299395;204;63009;-60
2021/01/24 10:48:32;;;;;;;0.80;0.80;;;;;;;0.62;64.15;95289.31;299395;280;63005;-60
2021/01/24 10:53:33;;;;;;;0.80;0.80;;;;;;;0.49;64.72;95290.66;299395;222;63022;-66
2021/01/24 10:58:38;;;;;;;0.90;0.90;;;;;;;0.73;62.63;95284.72;299395;207;63004;-65
2021/01/24 11:03:39;;;;;;;0.80;0.80;;;;;;;0.71;64.41;95285.00;299417;334;63009;-63
2021/01/24 11:08:40;;;;;;;0.90;0.90;;;;;;;0.93;60.14;95274.81;299395;239;63005;-68
2021/01/24 11:13:40;;;;;;;0.80;0.80;;;;;;;0.95;61.10;95298.59;299395;215;63009;-64
2021/01/24 11:18:42;;;;;;;0.80;0.80;;;;;;;0.94;60.33;95303.12;299395;241;63005;-68
2021/01/24 11:23:43;;;;;;;0.80;0.80;;;;;;;0.94;60.05;95302.34;299395;222;63009;-62
2021/01/24 11:28:47;;;;;;;0.80;0.80;;;;;;;0.89;60.72;95299.66;299395;283;63004;-63
2021/01/24 11:33:48;;;;;;;0.80;0.80;;;;;;;1.01;58.83;95302.84;299417;206;63009;-66
2021/01/24 11:38:49;;;;;;;0.80;0.80;;;;;;;0.96;59.60;95305.53;299395;204;63005;-63
2021/01/24 11:43:52;;;;;;;1.37;1.37;;;;;;;1.03;58.82;95295.38;299395;233;63008;-62
2021/01/24 11:48:52;;;;;;;0.80;0.80;;;;;;;1.02;60.66;95309.00;299395;233;63004;-65
2021/01/24 11:53:54;;;;;;;0.80;0.80;;;;;;;1.17;60.19;95325.75;299395;227;63009;-65
2021/01/24 11:58:55;;;;;;;0.80;0.80;;;;;;;1.21;59.33;95324.16;299395;222;63004;-52
2021/01/24 12:03:56;;;;;;;4.07;2.10;;;;;;;1.19;58.87;95326.31;299395;196;63009;-60
2021/01/24 12:08:57;;;;;;;0.70;0.70;;;;;;;1.16;58.94;95321.50;299395;263;63005;-61
2021/01/24 12:13:58;;;;;;;0.70;0.70;;;;;;;1.13;59.83;95338.06;299395;212;63015;-60
2021/01/24 12:19:04;;;;;;;0.80;0.80;;;;;;;1.22;58.88;95328.44;299395;221;63004;-62
2021/01/24 12:24:08;;;;;;;0.90;0.90;;;;;;;1.17;58.98;95341.78;299395;198;63009;-59
2021/01/24 12:29:09;;;;;;;0.70;0.70;;;;;;;1.24;58.75;95344.19;299417;246;63004;-59
2021/01/24 12:34:10;;;;;;;0.80;0.80;;;;;;;1.10;59.77;95340.47;299395;245;63018;-61
2021/01/24 12:39:11;;;;;;;0.80;0.80;;;;;;;0.98;60.89;95372.84;299395;230;63005;-62
2021/01/24 12:44:12;;;;;;;0.80;0.80;;;;;;;0.91;61.50;95361.63;299395;262;63008;-63
2021/01/24 12:49:16;;;;;;;0.80;0.80;;;;;;;0.86;61.47;95374.97;299395;205;63004;-59
2021/01/24 12:54:17;;;;;;;0.80;0.80;;;;;;;0.94;60.98;95364.56;299417;260;63009;-65
2021/01/24 12:59:18;;;;;;;0.80;0.80;;;;;;;1.08;59.08;95362.13;299395;225;63005;-61
2021/01/24 13:04:19;;;;;;;0.85;0.85;;;;;;;1.14;59.41;95345.00;299395;208;63009;-61
2021/01/24 13:09:20;;;;;;;0.80;0.80;;;;;;;1.13;59.85;95374.66;299395;222;63005;-58
2021/01/24 13:14:21;;;;;;;0.80;0.80;;;;;;;1.27;58.43;95365.81;299395;287;63009;-59
2021/01/24 13:19:25;;;;;;;1.00;1.00;;;;;;;1.34;57.58;95365.53;299395;237;63004;-59
2021/01/24 13:24:27;;;;;;;1.10;1.10;;;;;;;1.32;57.06;95373.84;299417;202;63009;-57
2021/01/24 13:29:28;;;;;;;1.12;1.12;;;;;;;1.23;57.22;95371.97;299395;224;63005;-63
2021/01/24 13:34:29;;;;;;;0.82;0.82;;;;;;;1.21;57.74;95379.47;299395;216;63009;-60
2021/01/24 13:39:30;;;;;;;0.80;0.80;;;;;;;1.34;57.63;95393.06;299394;209;64005;-59
2021/01/24 13:44:31;;;;;;;0.80;0.80;;;;;;;1.39;57.94;95396.81;299395;245;63009;-59
2021/01/24 13:49:32;;;;;;;0.80;0.80;;;;;;;1.28;58.96;95402.16;299395;224;63004;-62
2021/01/24 13:54:33;;;;;;;0.80;0.80;;;;;;;1.15;59.28;95415.25;299395;226;63009;-60
2021/01/24 13:59:34;;;;;;;0.80;0.80;;;;;;;1.00;60.09;95413.44;299394;245;64005;-60
2021/01/24 14:04:35;;;;;;;2.35;2.22;;;;;;;1.10;59.57;95400.03;299395;232;63009;-62
2021/01/24 14:09:36;;;;;;;0.80;0.80;;;;;;;0.88;60.00;95421.69;299395;220;63005;-60
2021/01/24 14:14:38;;;;;;;0.80;0.80;;;;;;;0.83;59.71;95412.87;299395;223;63009;-59
2021/01/24 14:19:41;;;;;;;0.80;0.80;;;;;;;1.04;58.92;95409.12;299395;212;63004;-59
2021/01/24 14:24:44;;;;;;;0.80;0.80;;;;;;;0.92;60.80;95427.31;299395;274;63009;-60
2021/01/24 14:29:45;;;;;;;0.70;0.70;;;;;;;0.96;60.34;95415.03;299395;273;63005;-62
2021/01/24 14:34:48;;;;;;;0.80;0.80;;;;;;;0.94;61.20;95423.31;299395;219;63009;-58
2021/01/24 14:39:49;;;;;;;0.80;0.80;;;;;;;0.93;60.89;95419.03;299395;216;63005;-62
2021/01/24 14:44:50;;;;;;;0.80;0.80;;;;;;;0.90;60.91;95414.22;299395;208;63022;-59
2021/01/24 14:49:51;;;;;;;0.90;0.90;;;;;;;1.00;60.46;95413.44;299395;220;63004;-59
2021/01/24 14:54:52;;;;;;;0.80;0.80;;;;;;;0.98;61.11;95408.34;299395;280;63009;-59
2021/01/24 14:59:53;;;;;;;0.80;0.80;;;;;;;1.13;60.52;95412.87;299395;204;63005;-60
2021/01/24 15:04:54;;;;;;;0.80;0.80;;;;;;;1.08;60.84;95422.75;299394;275;64013;-60
2021/01/24 15:09:55;;;;;;;0.80;0.80;;;;;;;1.00;60.31;95419.56;299396;295;63004;-59
2021/01/24 15:14:57;;;;;;;0.82;0.82;;;;;;;0.83;62.72;95426.25;299396;255;63009;-61
2021/01/24 15:19:58;;;;;;;0.80;0.80;;;;;;;0.90;60.69;95424.09;299396;196;63004;-58
2021/01/24 15:25:00;;;;;;;0.80;0.80;;;;;;;0.62;61.99;95431.56;299396;260;63009;-61
2021/01/24 15:30:01;;;;;;;0.80;0.80;;;;;;;0.46;62.81;95440.63;299396;202;63005;-59
2021/01/24 15:35:04;;;;;;;0.80;0.80;;;;;;;0.53;62.12;95425.16;299396;212;63008;-61
2021/01/24 15:40:08;;;;;;;0.80;0.80;;;;;;;0.43;63.46;95422.47;299396;239;63004;-59
2021/01/24 15:45:10;;;;;;;0.80;0.80;;;;;;;0.26;65.68;95435.25;299418;197;63009;-58
2021/01/24 15:50:11;;;;;;;0.80;0.80;;;;;;;0.09;65.91;95440.00;299396;208;63004;-58
2021/01/24 15:55:17;;;;;;;0.80;0.80;;;;;;;0.27;63.71;95431.53;299396;219;64009;-59
2021/01/24 16:00:19;;;;;;;0.80;0.80;;;;;;;-0.01;65.97;95430.09;299397;241;63005;-62
2021/01/24 16:05:20;;;;;;;0.80;0.80;;;;;;;-0.16;66.56;95430.84;299396;247;63009;-60
2021/01/24 16:10:21;;;;;;;0.80;0.80;;;;;;;-0.12;65.92;95426.59;299396;202;63006;-59
2021/01/24 16:15:22;;;;;;;0.80;0.80;;;;;;;0.19;64.09;95432.03;299396;199;63019;-60
2021/01/24 16:20:23;;;;;;;0.80;0.80;;;;;;;0.02;65.28;95434.09;299396;211;63005;-63
2021/01/24 16:25:24;;;;;;;0.80;0.80;;;;;;;-0.20;67.82;95455.63;299396;219;63009;-58
2021/01/24 16:30:25;;;;;;;0.80;0.80;;;;;;;-0.24;69.03;95447.34;299395;264;64005;-63
2021/01/24 16:35:26;;;;;;;0.85;0.85;;;;;;;-0.28;69.09;95459.56;299396;205;63009;-60
2021/01/24 16:40:27;;;;;;;0.80;0.80;;;;;;;-0.33;69.89;95464.88;299396;234;63004;-59
2021/01/24 16:45:28;;;;;;;0.80;0.80;;;;;;;-0.38;70.00;95451.53;299396;229;63009;-60
2021/01/24 16:50:31;;;;;;;0.80;0.80;;;;;;;-0.43;69.26;95454.19;299396;234;64005;-58
2021/01/24 16:55:31;;;;;;;0.80;0.80;;;;;;;-0.46;69.65;95455.50;299397;202;63009;-58
2021/01/24 17:00:32;;;;;;;0.80;0.80;;;;;;;-0.41;69.23;95462.72;299395;202;63010;-59
2021/01/24 17:05:34;;;;;;;0.80;0.80;;;;;;;-0.36;68.63;95460.09;299395;209;63009;-60
2021/01/24 17:10:35;;;;;;;0.80;0.80;;;;;;;-0.31;69.38;95452.09;299395;204;63004;-60
2021/01/24 17:15:36;;;;;;;0.80;0.80;;;;;;;-0.33;68.76;95448.88;299394;203;64009;-59
2021/01/24 17:20:37;;;;;;;0.80;0.80;;;;;;;-0.35;68.71;95451.03;299395;292;63005;-60
2021/01/24 17:25:40;;;;;;;0.80;0.80;;;;;;;-0.33;68.90;95438.22;299395;196;63009;-58
2021/01/24 17:30:42;;;;;;;0.80;0.80;;;;;;;-0.24;67.57;95442.00;299395;249;63005;-60
2021/01/24 17:35:43;;;;;;;0.80;0.80;;;;;;;-0.14;66.51;95428.72;299395;221;63009;-57
2021/01/24 17:40:44;;;;;;;0.90;0.90;;;;;;;-0.21;66.38;95420.16;299395;272;63004;-58
2021/01/24 17:45:46;;;;;;;0.80;0.80;;;;;;;-0.29;66.78;95425.97;299395;250;63009;-58
2021/01/24 17:50:47;;;;;;;0.80;0.80;;;;;;;-0.33;66.61;95427.56;299395;209;63005;-58
2021/01/24 17:55:48;;;;;;;0.80;0.80;;;;;;;-0.37;66.82;95421.16;299395;292;63009;-59
2021/01/24 18:00:49;;;;;;;0.80;0.80;;;;;;;-0.50;68.57;95421.63;299395;244;63005;-58
2021/01/24 18:05:50;;;;;;;0.90;0.90;;;;;;;-0.33;65.43;95400.91;299395;197;63009;-57
2021/01/24 18:10:52;;;;;;;0.80;0.80;;;;;;;-0.51;66.99;95415.50;299395;227;63004;-58
2021/01/24 18:15:53;;;;;;;0.80;0.80;;;;;;;-0.46;66.96;95406.72;299395;245;63009;-58
2021/01/24 18:20:57;;;;;;;0.80;0.80;;;;;;;-0.49;67.06;95393.94;299395;215;63005;-58
2021/01/24 18:25:59;;;;;;;0.80;0.80;;;;;;;-0.58;67.46;95406.13;299417;254;63009;-59
2021/01/24 18:31:00;;;;;;;0.80;0.80;;;;;;;-0.51;66.86;95398.72;299395;247;63005;-59
2021/01/24 18:36:02;;;;;;;0.90;0.90;;;;;;;-0.52;66.67;95394.44;299395;285;63009;-66
2021/01/24 18:41:03;;;;;;;0.80;0.80;;;;;;;-0.55;66.89;95386.97;299395;279;63004;-58
2021/01/24 18:46:07;;;;;;;0.80;0.80;;;;;;;-0.63;66.94;95395.44;299395;202;63009;-57
2021/01/24 18:51:09;;;;;;;0.80;0.80;;;;;;;-0.57;67.34;95383.75;299395;244;63005;-59
2021/01/24 18:56:10;;;;;;;0.80;0.80;;;;;;;-0.72;67.86;95387.97;299395;231;63008;-58
2021/01/24 19:01:12;;;;;;;0.80;0.80;;;;;;;-0.65;67.85;95381.56;299395;327;63004;-58
2021/01/24 19:06:14;;;;;;;0.90;0.90;;;;;;;-0.74;68.56;95374.09;299395;226;63009;-58
2021/01/24 19:11:17;;;;;;;0.80;0.80;;;;;;;-0.89;70.50;95371.34;299395;216;63004;-58
2021/01/24 19:16:18;;;;;;;0.80;0.80;;;;;;;-0.89;70.32;95387.31;299395;301;63009;-58
2021/01/24 19:21:19;;;;;;;0.80;0.80;;;;;;;-0.92;70.48;95393.16;299395;207;63005;-64
2021/01/24 19:26:20;;;;;;;0.80;0.80;;;;;;;-0.93;70.15;95390.75;299395;350;63008;-60
2021/01/24 19:31:21;;;;;;;0.80;0.80;;;;;;;-1.00;70.17;95385.62;299395;218;63004;-59
2021/01/24 19:36:22;;;;;;;0.80;0.80;;;;;;;-0.99;70.59;95391.78;299395;264;63009;-58
2021/01/24 19:41:23;;;;;;;0.80;0.80;;;;;;;-1.12;69.52;95385.06;299395;363;63004;-58
2021/01/24 19:46:25;;;;;;;0.90;0.90;;;;;;;-0.96;68.26;95362.78;299395;304;63009;-58
2021/01/24 19:51:27;;;;;;;0.80;0.80;;;;;;;-0.97;67.96;95369.16;299395;212;63005;-59
2021/01/24 19:56:28;;;;;;;0.80;0.80;;;;;;;-1.05;67.62;95357.16;299395;211;63008;-64
2021/01/24 20:01:32;;;;;;;0.80;0.80;;;;;;;-0.96;67.08;95346.00;299395;335;63004;-59
2021/01/24 20:06:35;;;;;;;0.80;0.80;;;;;;;-1.05;68.01;95353.69;299417;317;63009;-59
2021/01/24 20:11:35;;;;;;;0.80;0.80;;;;;;;-1.03;68.03;95332.91;299395;325;63005;-59
2021/01/24 20:16:36;;;;;;;0.80;0.80;;;;;;;-0.95;67.50;95321.78;299395;230;63009;-57
2021/01/24 20:21:40;;;;;;;0.80;0.80;;;;;;;-1.00;67.63;95332.41;299395;212;63005;-56
2021/01/24 20:26:43;;;;;;;0.80;0.80;;;;;;;-1.06;67.48;95330.78;299417;197;63009;-58
2021/01/24 20:31:44;;;;;;;0.80;0.80;;;;;;;-1.18;67.83;95328.31;299395;222;63004;-59
2021/01/24 20:36:46;;;;;;;0.80;0.80;;;;;;;-1.26;68.73;95355.41;299395;208;63019;-63
2021/01/24 20:41:46;;;;;;;0.80;0.80;;;;;;;-1.28;70.20;95356.72;299395;308;63005;-64
2021/01/24 20:46:47;;;;;;;0.80;0.80;;;;;;;-1.22;68.09;95340.53;299395;215;63009;-59
2021/01/24 20:51:49;;;;;;;0.80;0.80;;;;;;;-1.43;69.78;95344.94;299395;226;63005;-59
2021/01/24 20:56:51;;;;;;;0.73;0.73;;;;;;;-1.36;70.69;95340.16;299394;210;64014;-59
2021/01/24 21:01:52;;;;;;;0.80;0.80;;;;;;;-1.25;68.39;95330.41;299395;224;63004;-57
2021/01/24 21:06:53;;;;;;;0.80;0.80;;;;;;;-1.28;68.95;95335.44;299395;216;63009;-58
2021/01/24 21:11:54;;;;;;;0.80;0.80;;;;;;;-1.29;69.66;95317.84;299395;248;63005;-57
2021/01/24 21:16:55;;;;;;;0.80;0.80;;;;;;;-1.19;68.17;95305.41;299394;254;64009;-58
2021/01/24 21:21:58;;;;;;;0.80;0.80;;;;;;;-1.27;69.19;95308.56;299395;197;63005;-58
2021/01/24 21:26:59;;;;;;;0.80;0.80;;;;;;;-1.37;69.27;95301.31;299395;202;63009;-58
2021/01/24 21:31:59;;;;;;;0.80;0.80;;;;;;;-1.27;68.17;95294.44;299395;386;63004;-65
2021/01/24 21:37:00;;;;;;;0.80;0.80;;;;;;;-1.38;69.48;95305.03;299395;214;63020;-58
2021/01/24 21:42:02;;;;;;;0.80;0.80;;;;;;;-1.39;69.24;95292.78;299395;257;63005;-58
2021/01/24 21:47:04;;;;;;;0.80;0.80;;;;;;;-1.34;69.09;95284.03;299395;196;63009;-58
2021/01/24 21:52:05;;;;;;;0.80;0.80;;;;;;;-1.36;69.15;95292.28;299395;220;63005;-64
2021/01/24 21:57:06;;;;;;;0.80;0.80;;;;;;;-1.43;69.12;95281.06;299395;231;63009;-59
2021/01/24 22:02:07;;;;;;;0.80;0.80;;;;;;;-1.38;69.80;95273.09;299395;202;63004;-60
2021/01/24 22:07:08;;;;;;;0.90;0.90;;;;;;;-1.30;68.71;95269.16;299395;210;63006;-62
2021/01/24 22:12:09;;;;;;;0.80;0.80;;;;;;;-1.30;69.25;95285.13;299395;264;63005;-58
2021/01/24 22:17:13;;;;;;;0.80;0.80;;;;;;;-1.35;69.34;95291.22;299395;196;63008;-58
2021/01/24 22:22:14;;;;;;;0.80;0.80;;;;;;;-1.27;68.64;95281.94;299417;232;63004;-57
2021/01/24 22:27:15;;;;;;;0.90;0.90;;;;;;;-1.30;68.72;95284.31;299395;216;63009;-58
2021/01/24 22:32:16;;;;;;;0.80;0.80;;;;;;;-1.37;69.68;95274.69;299395;230;63004;-57
2021/01/24 22:37:17;;;;;;;0.80;0.80;;;;;;;-1.33;67.68;95271.53;299395;271;63020;-60
2021/01/24 22:42:18;;;;;;;0.80;0.80;;;;;;;-1.22;67.42;95259.91;299395;253;63005;-57
2021/01/24 22:47:19;;;;;;;0.80;0.80;;;;;;;-1.18;66.62;95266.31;299395;239;63008;-58
2021/01/24 22:52:20;;;;;;;0.80;0.80;;;;;;;-1.15;66.79;95252.47;299395;224;63004;-56
2021/01/24 22:57:21;;;;;;;0.80;0.80;;;;;;;-1.19;66.88;95254.84;299395;204;63020;-58
2021/01/24 23:02:23;;;;;;;0.80;0.80;;;;;;;-1.17;66.52;95246.63;299395;247;63004;-57
2021/01/24 23:07:24;;;;;;;0.80;0.80;;;;;;;-1.17;66.44;95246.63;299395;285;63009;-58
2021/01/24 23:12:25;;;;;;;0.80;0.80;;;;;;;-1.13;66.51;95247.69;299395;220;63012;-58
2021/01/24 23:17:26;;;;;;;0.80;0.80;;;;;;;-1.14;67.26;95243.44;299395;274;63008;-60
2021/01/24 23:22:27;;;;;;;0.80;0.80;;;;;;;-1.12;67.23;95243.97;299395;202;63004;-57
2021/01/24 23:27:28;;;;;;;0.80;0.80;;;;;;;-1.17;67.13;95230.66;299395;226;63009;-58
2021/01/24 23:32:29;;;;;;;0.80;0.80;;;;;;;-1.20;67.70;95220.53;299395;206;63005;-57
2021/01/24 23:37:30;;;;;;;1.15;1.15;;;;;;;-1.20;67.55;95209.88;299395;203;63009;-56
2021/01/24 23:42:31;;;;;;;0.80;0.80;;;;;;;-1.22;67.19;95196.03;299395;275;63005;-57
2021/01/24 23:47:32;;;;;;;0.80;0.80;;;;;;;-1.16;66.08;95192.31;299395;255;63021;-58
2021/01/24 23:52:33;;;;;;;0.90;0.90;;;;;;;-1.09;65.31;95190.22;299395;206;63004;-58